Time;durP1;ratioP1;P1;durP2;ratioP2;P2;SDS_P1;SDS_P2;PMS_P1;PMS_P2;Temp;Humidity;BMP_temperature;BMP_pressure;BME280_temperature;BME280_humidity;BME280_pressure;Samples;Min_cycle;Max_cycle;Signal;HPM_P1;HPM_P2
2022/11/28 00:00:20;;;;;;;13.13;7.33;;;4.10;99.90;;;;;;4114972;28;21002;-67
2022/11/28 00:02:21;;;;;;;12.60;7.63;;;4.00;99.90;;;;;;4113546;28;20605;-67
2022/11/28 00:04:22;;;;;;;10.70;6.80;;;3.80;99.90;;;;;;4114113;28;20189;-68
2022/11/28 00:06:24;;;;;;;13.40;7.37;;;3.80;99.90;;;;;;4113373;28;20182;-68
2022/11/28 00:08:24;;;;;;;13.00;7.87;;;3.70;99.90;;;;;;4114836;28;20688;-69
2022/11/28 00:10:25;;;;;;;13.30;6.70;;;3.70;99.90;;;;;;4114658;28;20429;-69
2022/11/28 00:12:26;;;;;;;12.60;6.43;;;3.70;99.90;;;;;;4113215;28;20194;-70
2022/11/28 00:14:27;;;;;;;12.93;7.07;;;3.80;99.90;;;;;;4112793;28;20277;-70
2022/11/28 00:16:27;;;;;;;12.43;7.50;;;3.80;99.90;;;;;;4114490;28;20264;-70
2022/11/28 00:18:28;;;;;;;10.40;6.80;;;3.90;99.90;;;;;;4114742;28;20879;-69
2022/11/28 00:20:32;;;;;;;10.80;6.10;;;4.00;99.90;;;;;;4114593;28;20970;-69
2022/11/28 00:22:33;;;;;;;9.77;6.00;;;4.00;99.90;;;;;;4114136;28;20236;-67
2022/11/28 00:24:33;;;;;;;11.63;5.73;;;4.00;99.90;;;;;;4114193;28;21233;-70
2022/11/28 00:26:38;;;;;;;11.27;6.30;;;4.00;99.90;;;;;;4114292;28;20192;-69
2022/11/28 00:28:39;;;;;;;9.87;5.93;;;4.10;99.90;;;;;;4113118;28;20186;-71
2022/11/28 00:30:40;;;;;;;13.87;7.60;;;4.10;99.90;;;;;;4103553;28;20438;-73
2022/11/28 00:32:40;;;;;;;9.73;6.00;;;4.10;99.90;;;;;;4110290;28;20189;-69
2022/11/28 00:34:41;;;;;;;11.90;6.73;;;3.90;99.90;;;;;;4114462;28;20302;-69
2022/11/28 00:36:45;;;;;;;15.73;7.67;;;3.90;99.90;;;;;;4114866;28;20666;-69
2022/11/28 00:38:46;;;;;;;12.73;7.53;;;3.80;99.90;;;;;;4113292;28;20189;-69
2022/11/28 00:40:47;;;;;;;14.10;7.13;;;3.80;99.90;;;;;;4114685;28;20474;-68
2022/11/28 00:42:47;;;;;;;14.57;7.67;;;3.80;99.90;;;;;;4112667;28;20578;-68
2022/11/28 00:44:48;;;;;;;13.70;7.60;;;3.80;99.90;;;;;;4114620;28;20382;-69
2022/11/28 00:46:49;;;;;;;13.83;7.33;;;3.70;99.90;;;;;;4113069;28;20186;-68
2022/11/28 00:48:51;;;;;;;13.57;7.00;;;3.50;99.90;;;;;;4114653;28;20670;-68
2022/11/28 00:50:52;;;;;;;14.00;7.70;;;3.60;99.90;;;;;;4114355;28;20187;-68
2022/11/28 00:52:53;;;;;;;14.40;7.90;;;3.70;99.90;;;;;;4113794;28;20438;-68
2022/11/28 00:54:53;;;;;;;14.47;7.57;;;3.70;99.90;;;;;;4114435;28;20464;-69
2022/11/28 00:56:54;;;;;;;13.77;7.60;;;3.80;99.90;;;;;;4114527;28;20189;-69
2022/11/28 00:58:56;;;;;;;14.27;8.27;;;3.80;99.90;;;;;;4114572;28;20186;-68
2022/11/28 01:00:56;;;;;;;12.03;7.27;;;3.80;99.90;;;;;;4114667;28;20716;-69
2022/11/28 01:02:58;;;;;;;15.73;8.40;;;3.80;99.90;;;;;;4112229;28;20508;-68
2022/11/28 01:04:59;;;;;;;15.50;8.57;;;3.80;99.90;;;;;;4113252;28;20301;-69
2022/11/28 01:07:01;;;;;;;17.90;8.73;;;3.90;99.90;;;;;;4113095;28;20422;-68
2022/11/28 01:09:08;;;;;;;14.13;8.30;;;3.90;99.90;;;;;;4114618;28;20409;-68
2022/11/28 01:11:12;;;;;;;14.70;8.63;;;3.90;99.90;;;;;;4112994;28;20429;-68
2022/11/28 01:13:13;;;;;;;14.93;8.27;;;3.80;99.90;;;;;;4113282;28;20441;-68
2022/11/28 01:15:13;;;;;;;15.87;8.40;;;3.80;99.90;;;;;;4114126;28;21282;-68
2022/11/28 01:17:14;;;;;;;12.80;7.67;;;3.80;99.90;;;;;;4114165;28;20615;-68
2022/11/28 01:19:15;;;;;;;15.33;8.50;;;3.70;99.90;;;;;;4114061;28;20186;-69
2022/11/28 01:21:17;;;;;;;15.33;8.17;;;3.70;99.90;;;;;;4113340;28;20190;-69
2022/11/28 01:23:18;;;;;;;25.50;12.33;;;3.70;99.90;;;;;;4112335;28;20469;-69
2022/11/28 01:25:18;;;;;;;19.53;11.17;;;3.60;99.90;;;;;;4114343;28;20441;-69
2022/11/28 01:27:19;;;;;;;16.03;9.17;;;3.60;99.90;;;;;;4114150;28;20512;-69
2022/11/28 01:29:20;;;;;;;16.93;9.20;;;3.60;99.90;;;;;;4114039;28;20187;-67
2022/11/28 01:31:24;;;;;;;15.37;8.83;;;3.70;99.90;;;;;;4113985;28;20178;-68
2022/11/28 01:33:25;;;;;;;14.50;8.60;;;3.70;99.90;;;;;;4113378;28;20211;-67
2022/11/28 01:35:25;;;;;;;18.80;7.73;;;3.70;99.90;;;;;;4112728;28;20458;-69
2022/11/28 01:37:29;;;;;;;14.73;8.43;;;3.50;99.90;;;;;;4113991;28;20185;-68
2022/11/28 01:39:29;;;;;;;16.33;7.87;;;3.50;99.90;;;;;;4113837;28;20182;-69
2022/11/28 01:41:30;;;;;;;10.57;6.13;;;3.50;99.90;;;;;;4113786;28;20485;-67
2022/11/28 01:43:31;;;;;;;15.97;7.07;;;3.60;99.90;;;;;;4112279;28;20224;-69
2022/11/28 01:45:32;;;;;;;13.60;7.93;;;3.60;99.90;;;;;;4128586;28;20202;-68
2022/11/28 01:47:34;;;;;;;14.57;7.67;;;3.60;99.90;;;;;;4113672;28;20429;-69
2022/11/28 01:49:36;;;;;;;14.23;7.63;;;3.70;99.90;;;;;;4122680;28;20456;-69
2022/11/28 01:51:41;;;;;;;12.53;7.70;;;3.60;99.90;;;;;;4118091;28;20529;-68
2022/11/28 01:53:45;;;;;;;12.57;6.83;;;3.60;99.90;;;;;;4113411;28;20572;-68
2022/11/28 01:55:57;;;;;;;12.10;7.17;;;3.50;99.90;;;;;;4096809;28;20488;-68
2022/11/28 01:57:58;;;;;;;13.57;6.83;;;3.50;99.90;;;;;;4112551;28;20457;-69
2022/11/28 02:00:13;;;;;;;15.97;8.00;;;3.60;99.90;;;;;;4112722;28;20796;-68
2022/11/28 02:02:35;;;;;;;11.63;6.83;;;3.60;99.90;;;;;;4112395;28;20257;-69
2022/11/28 02:04:36;;;;;;;9.93;6.30;;;3.50;99.90;;;;;;4112712;28;20836;-68
2022/11/28 02:06:37;;;;;;;11.77;6.27;;;3.50;99.90;;;;;;4112651;28;20434;-68
2022/11/28 02:08:38;;;;;;;11.43;6.23;;;3.50;99.90;;;;;;4113665;28;20208;-69
2022/11/28 02:11:13;;;;;;;12.23;6.83;;;3.50;99.90;;;;;;4113821;28;20205;-68
2022/11/28 02:13:47;;;;;;;10.40;6.27;;;3.50;99.90;;;;;;4112528;28;20676;-68
2022/11/28 02:16:20;;;;;;;13.60;6.47;;;3.50;99.90;;;;;;4112832;28;20528;-68
2022/11/28 02:18:39;;;;;;;10.07;5.97;;;3.60;99.90;;;;;;4113787;28;20556;-69
2022/11/28 02:21:17;;;;;;;10.03;6.40;;;3.60;99.90;;;;;;4113877;28;20428;-69
2022/11/28 02:24:06;;;;;;;14.27;7.43;;;3.70;99.90;;;;;;4113113;28;20469;-69
2022/11/28 02:26:28;;;;;;;10.57;6.53;;;3.60;99.90;;;;;;4116920;28;20464;-68
2022/11/28 02:28:49;;;;;;;17.13;7.37;;;3.60;99.90;;;;;;4105334;28;20478;-68
2022/11/28 02:31:26;;;;;;;12.67;7.00;;;3.60;99.90;;;;;;4100743;28;20437;-69
2022/11/28 02:33:33;;;;;;;11.63;7.23;;;3.50;99.90;;;;;;4114844;28;20418;-68
2022/11/28 02:36:12;;;;;;;14.40;7.23;;;3.50;99.90;;;;;;4115048;28;20454;-67
2022/11/28 02:38:41;;;;;;;14.27;8.13;;;3.60;99.90;;;;;;4116431;28;20455;-69
2022/11/28 02:40:52;;;;;;;25.13;13.57;;;3.50;99.90;;;;;;4099421;28;20455;-68
2022/11/28 02:43:21;;;;;;;22.93;13.30;;;3.50;99.90;;;;;;4115803;28;21116;-68
2022/11/28 02:45:36;;;;;;;30.47;14.87;;;3.60;99.90;;;;;;4115049;28;20453;-68
2022/11/28 02:47:45;;;;;;;15.50;9.87;;;3.50;99.90;;;;;;4116552;28;20437;-68
2022/11/28 02:50:03;;;;;;;14.53;7.37;;;3.20;99.90;;;;;;4115090;28;20428;-68
2022/11/28 02:52:15;;;;;;;14.80;9.03;;;3.20;99.90;;;;;;4131372;28;20433;-68
2022/11/28 02:54:19;;;;;;;14.30;8.70;;;3.30;99.90;;;;;;4114602;28;20569;-68
2022/11/28 02:56:23;;;;;;;13.53;7.63;;;3.40;99.90;;;;;;4115139;28;20454;-68
2022/11/28 02:58:24;;;;;;;14.57;7.50;;;3.40;99.90;;;;;;4116340;28;20507;-67
2022/11/28 03:00:35;;;;;;;12.10;6.90;;;3.50;99.90;;;;;;4115052;28;20858;-68
2022/11/28 03:02:36;;;;;;;12.43;7.20;;;3.60;99.90;;;;;;4114138;28;20508;-68
2022/11/28 03:05:33;;;;;;;12.53;7.33;;;3.60;99.90;;;;;;4114621;28;20433;-67
2022/11/28 03:08:08;;;;;;;11.67;7.03;;;3.40;99.90;;;;;;4115750;28;20452;-68
2022/11/28 03:11:06;;;;;;;10.13;5.90;;;3.30;99.90;;;;;;4114991;28;20502;-67
2022/11/28 03:13:21;;;;;;;11.73;6.20;;;3.50;99.90;;;;;;4114712;28;20993;-68
2022/11/28 03:15:57;;;;;;;7.27;4.50;;;3.40;99.90;;;;;;4115181;28;20446;-69
2022/11/28 03:18:11;;;;;;;8.53;5.03;;;3.30;99.90;;;;;;4120355;28;20460;-73
2022/11/28 03:20:30;;;;;;;6.97;4.80;;;3.40;99.90;;;;;;4114764;28;20436;-68
2022/11/28 03:23:10;;;;;;;6.47;4.07;;;3.50;99.90;;;;;;4110075;28;20888;-68
2022/11/28 03:25:31;;;;;;;7.83;4.03;;;3.40;99.90;;;;;;4115939;28;20445;-68
2022/11/28 03:27:41;;;;;;;8.23;4.33;;;3.50;99.90;;;;;;4115997;28;20446;-69
2022/11/28 03:29:54;;;;;;;7.27;4.17;;;3.60;99.90;;;;;;4114597;28;20429;-69
2022/11/28 03:32:00;;;;;;;8.13;4.13;;;3.60;99.90;;;;;;4130555;28;20924;-67
2022/11/28 03:34:06;;;;;;;5.10;3.77;;;3.60;99.90;;;;;;4114016;28;20420;-68
2022/11/28 03:36:19;;;;;;;4.93;3.40;;;3.70;99.90;;;;;;4114659;28;20463;-69
2022/11/28 03:38:26;;;;;;;5.23;3.70;;;3.60;99.90;;;;;;4113069;28;20799;-68
2022/11/28 03:40:35;;;;;;;7.27;4.37;;;3.70;99.90;;;;;;4130306;28;20437;-69
2022/11/28 03:42:42;;;;;;;7.27;4.80;;;3.60;99.90;;;;;;4129733;28;20517;-68
2022/11/28 03:44:51;;;;;;;8.57;5.20;;;3.60;99.90;;;;;;4115456;28;20449;-67
2022/11/28 03:46:56;;;;;;;10.53;6.27;;;3.60;99.90;;;;;;4114144;28;20961;-68
2022/11/28 03:48:59;;;;;;;10.20;5.83;;;3.50;99.90;;;;;;4114029;28;20429;-68
2022/11/28 03:51:13;;;;;;;10.20;5.40;;;3.50;99.90;;;;;;4114037;28;20432;-67
2022/11/28 03:53:22;;;;;;;7.50;5.07;;;3.60;99.90;;;;;;4122480;28;20425;-69
2022/11/28 03:55:37;;;;;;;10.17;5.30;;;3.40;99.90;;;;;;4122486;28;20460;-68
2022/11/28 03:58:33;;;;;;;8.53;5.10;;;3.50;99.90;;;;;;4114790;28;20451;-68
2022/11/28 04:00:58;;;;;;;7.00;4.40;;;3.50;99.90;;;;;;4091867;28;20449;-68
2022/11/28 04:03:13;;;;;;;6.97;4.83;;;3.40;99.90;;;;;;4114642;28;20492;-69
2022/11/28 04:05:47;;;;;;;8.37;5.00;;;3.40;99.90;;;;;;4114026;28;20460;-68
2022/11/28 04:08:19;;;;;;;8.80;5.33;;;3.30;99.90;;;;;;4114053;28;20433;-67
2022/11/28 04:10:28;;;;;;;7.97;4.97;;;3.30;99.90;;;;;;4115238;28;20509;-68
2022/11/28 04:12:52;;;;;;;7.27;5.07;;;3.30;99.90;;;;;;4114404;28;20495;-68
2022/11/28 04:15:00;;;;;;;7.57;4.90;;;3.20;99.90;;;;;;4113963;28;20452;-69
2022/11/28 04:17:45;;;;;;;7.77;4.50;;;3.30;99.90;;;;;;4115486;28;20519;-69
2022/11/28 04:19:54;;;;;;;7.07;4.67;;;3.30;99.90;;;;;;4115202;28;20437;-67
2022/11/28 04:22:04;;;;;;;9.80;5.43;;;3.20;99.90;;;;;;4113594;28;20830;-68
2022/11/28 04:24:14;;;;;;;8.70;5.33;;;3.10;99.90;;;;;;4113104;28;20529;-68
2022/11/28 04:26:28;;;;;;;8.03;4.63;;;3.20;99.90;;;;;;4113568;28;20449;-69
2022/11/28 04:28:32;;;;;;;5.20;3.97;;;3.10;99.90;;;;;;4113689;28;20863;-68
2022/11/28 04:30:35;;;;;;;4.77;3.20;;;3.10;99.90;;;;;;4113336;28;20437;-69
2022/11/28 04:32:40;;;;;;;3.10;1.90;;;3.10;99.90;;;;;;4112834;28;20437;-69
2022/11/28 04:34:46;;;;;;;2.33;1.80;;;3.00;99.90;;;;;;4111733;28;20923;-67
2022/11/28 04:36:48;;;;;;;2.57;1.60;;;3.30;99.90;;;;;;4114879;28;20429;-67
2022/11/28 04:38:55;;;;;;;1.47;1.03;;;3.40;99.90;;;;;;4097364;29;20431;-68
2022/11/28 04:41:15;;;;;;;3.33;2.40;;;3.80;99.90;;;;;;4113340;28;20444;-69
2022/11/28 04:43:26;;;;;;;2.67;1.60;;;3.80;99.90;;;;;;4096603;28;20520;-69
2022/11/28 04:45:34;;;;;;;3.53;2.10;;;3.80;99.90;;;;;;4097626;29;20449;-68
2022/11/28 04:47:35;;;;;;;2.90;2.10;;;3.80;99.90;;;;;;4097125;28;20979;-68
2022/11/28 04:49:36;;;;;;;3.80;2.57;;;3.70;99.90;;;;;;4098759;29;20426;-68
2022/11/28 04:52:22;;;;;;;4.83;2.33;;;3.60;99.90;;;;;;4098032;29;20213;-69
2022/11/28 04:54:35;;;;;;;3.53;2.70;;;3.50;99.90;;;;;;4096908;29;20506;-67
2022/11/28 04:57:01;;;;;;;5.30;2.93;;;3.60;99.90;;;;;;4098725;28;20820;-69
2022/11/28 04:59:05;;;;;;;5.43;3.43;;;3.70;99.90;;;;;;4100206;28;20439;-68
2022/11/28 05:01:10;;;;;;;7.20;3.13;;;3.70;99.90;;;;;;4113153;28;20965;-68
2022/11/28 05:03:11;;;;;;;6.30;3.50;;;3.70;99.90;;;;;;4112212;28;20500;-68
2022/11/28 05:05:17;;;;;;;7.13;5.30;;;3.70;99.90;;;;;;4112939;28;20438;-68
2022/11/28 05:07:18;;;;;;;5.80;4.30;;;3.60;99.90;;;;;;4113165;28;20426;-68
2022/11/28 05:09:18;;;;;;;6.53;4.23;;;3.40;99.90;;;;;;4114095;28;20429;-68
2022/11/28 05:11:19;;;;;;;7.00;5.80;;;3.40;99.90;;;;;;4114100;28;20178;-68
2022/11/28 05:13:20;;;;;;;7.60;4.87;;;3.30;99.90;;;;;;4112323;28;20252;-68
2022/11/28 05:15:21;;;;;;;9.07;5.63;;;3.20;99.90;;;;;;4114052;28;20217;-68
2022/11/28 05:17:21;;;;;;;7.50;4.97;;;3.20;99.90;;;;;;4114074;28;20186;-68
2022/11/28 05:19:22;;;;;;;7.20;4.20;;;3.30;99.90;;;;;;4112723;28;20196;-68
2022/11/28 05:21:23;;;;;;;6.60;4.20;;;3.30;99.90;;;;;;4113944;28;20193;-68
2022/11/28 05:23:23;;;;;;;5.10;3.87;;;3.10;99.90;;;;;;4113461;28;20246;-68
2022/11/28 05:25:24;;;;;;;7.03;4.63;;;3.20;99.90;;;;;;4114112;28;20208;-68
2022/11/28 05:27:24;;;;;;;8.33;5.00;;;3.40;99.90;;;;;;4114224;28;20178;-69
2022/11/28 05:29:25;;;;;;;7.67;5.10;;;3.30;99.90;;;;;;4114001;28;20218;-68
2022/11/28 05:31:26;;;;;;;6.93;5.00;;;3.40;99.90;;;;;;4112656;28;20192;-68
2022/11/28 05:33:31;;;;;;;6.67;4.73;;;3.40;99.90;;;;;;4113198;28;20186;-68
2022/11/28 05:35:32;;;;;;;9.23;6.10;;;3.40;99.90;;;;;;4114062;28;20453;-68
2022/11/28 05:37:33;;;;;;;11.27;7.93;;;3.40;99.90;;;;;;4113930;28;20884;-69
2022/11/28 05:39:33;;;;;;;12.43;7.23;;;3.30;99.90;;;;;;4113882;28;20189;-69
2022/11/28 05:41:34;;;;;;;8.37;5.93;;;3.20;99.90;;;;;;4113859;28;20697;-69
2022/11/28 05:43:35;;;;;;;7.63;5.13;;;3.20;99.90;;;;;;4111751;28;20213;-68
2022/11/28 05:45:43;;;;;;;7.93;5.20;;;3.10;99.90;;;;;;4113788;28;20229;-68
2022/11/28 05:47:44;;;;;;;7.27;5.10;;;3.00;99.90;;;;;;4112496;28;20235;-69
2022/11/28 05:49:46;;;;;;;5.70;4.40;;;3.10;99.90;;;;;;4113810;28;20437;-68
2022/11/28 05:51:47;;;;;;;6.93;4.50;;;3.20;99.90;;;;;;4096291;28;20180;-67
2022/11/28 05:53:48;;;;;;;5.70;4.13;;;3.30;99.90;;;;;;4113103;28;20497;-68
2022/11/28 05:55:49;;;;;;;5.77;3.80;;;3.30;99.90;;;;;;4113968;28;20450;-68
2022/11/28 05:57:49;;;;;;;6.37;4.90;;;3.10;99.90;;;;;;4119946;28;20684;-69
2022/11/28 05:59:50;;;;;;;9.43;5.80;;;3.20;99.90;;;;;;4121885;28;20554;-69
2022/11/28 06:01:51;;;;;;;10.30;6.67;;;3.10;99.90;;;;;;4117444;28;20206;-69
2022/11/28 06:03:57;;;;;;;7.97;5.50;;;3.10;99.90;;;;;;4115296;28;20164;-68
2022/11/28 06:05:57;;;;;;;8.47;5.40;;;3.10;99.90;;;;;;4117193;28;20209;-68
2022/11/28 06:07:58;;;;;;;7.20;5.57;;;3.10;99.90;;;;;;4117221;28;20443;-69
2022/11/28 06:09:58;;;;;;;9.53;6.90;;;3.20;99.90;;;;;;4116180;28;20186;-69
2022/11/28 06:11:59;;;;;;;10.23;7.50;;;3.30;99.90;;;;;;4117154;28;20190;-71
2022/11/28 06:14:01;;;;;;;10.17;7.20;;;3.30;99.90;;;;;;4116645;28;20184;-69
2022/11/28 06:16:08;;;;;;;10.67;7.30;;;3.30;99.90;;;;;;4116142;28;20202;-70
2022/11/28 06:18:08;;;;;;;11.80;8.10;;;3.30;99.90;;;;;;4131847;28;20445;-69
2022/11/28 06:20:09;;;;;;;12.07;6.57;;;3.20;99.90;;;;;;4117556;28;20779;-68
2022/11/28 06:22:10;;;;;;;11.27;6.40;;;3.30;99.90;;;;;;4117166;28;20205;-70
2022/11/28 06:24:11;;;;;;;10.83;6.43;;;3.30;99.90;;;;;;4115365;28;20213;-69
2022/11/28 06:26:15;;;;;;;10.37;6.43;;;3.30;99.90;;;;;;4116935;28;20213;-69
2022/11/28 06:28:16;;;;;;;15.60;7.33;;;3.30;99.90;;;;;;4114899;28;20297;-70
2022/11/28 06:30:17;;;;;;;12.83;8.33;;;3.20;99.90;;;;;;4115432;28;20434;-69
2022/11/28 06:32:17;;;;;;;14.57;8.93;;;3.30;99.90;;;;;;4100731;28;20197;-68
2022/11/28 06:34:18;;;;;;;12.37;8.03;;;3.30;99.90;;;;;;4099864;28;20269;-68
2022/11/28 06:36:19;;;;;;;15.97;8.70;;;3.30;99.90;;;;;;4100510;28;20265;-68
2022/11/28 06:38:21;;;;;;;13.37;8.37;;;3.30;99.90;;;;;;4100400;28;20193;-68
2022/11/28 06:40:21;;;;;;;14.57;9.47;;;3.30;99.90;;;;;;4100430;28;20437;-68
2022/11/28 06:42:22;;;;;;;12.23;8.37;;;3.30;99.90;;;;;;4100266;28;20479;-67
2022/11/28 06:44:23;;;;;;;14.63;9.87;;;3.40;99.90;;;;;;4099492;29;20175;-68
2022/11/28 06:46:23;;;;;;;12.10;7.40;;;3.40;99.90;;;;;;4100424;28;20645;-68
2022/11/28 06:48:24;;;;;;;12.43;8.87;;;3.40;99.90;;;;;;4100411;28;20551;-68
2022/11/28 06:50:25;;;;;;;12.13;8.07;;;3.20;99.90;;;;;;4115014;28;20185;-68
2022/11/28 06:52:25;;;;;;;13.03;8.20;;;3.20;99.90;;;;;;4098994;28;20222;-68
2022/11/28 06:54:26;;;;;;;12.23;8.27;;;3.30;99.90;;;;;;4098147;29;20197;-67
2022/11/28 06:56:27;;;;;;;12.17;7.97;;;3.30;99.90;;;;;;4100039;29;20697;-69
2022/11/28 06:58:27;;;;;;;10.97;6.87;;;3.40;99.90;;;;;;4098789;28;20366;-69
2022/11/28 07:00:28;;;;;;;8.83;6.03;;;3.40;99.90;;;;;;4100156;29;20191;-67
2022/11/28 07:02:29;;;;;;;10.83;6.20;;;3.40;99.90;;;;;;4114269;28;20224;-68
2022/11/28 07:04:30;;;;;;;9.07;7.23;;;3.30;99.90;;;;;;4097197;29;20181;-68
2022/11/28 07:06:30;;;;;;;39.37;22.27;;;3.30;99.90;;;;;;4097800;29;20265;-68
2022/11/28 07:08:32;;;;;;;78.23;40.60;;;3.30;99.90;;;;;;4098936;29;20194;-68
2022/11/28 07:10:32;;;;;;;87.43;46.50;;;3.30;99.90;;;;;;4098608;28;20655;-68
2022/11/28 07:12:33;;;;;;;43.60;24.40;;;3.20;99.90;;;;;;4098576;29;20466;-67
2022/11/28 07:14:34;;;;;;;18.97;11.80;;;3.20;99.90;;;;;;4097406;29;20679;-68
2022/11/28 07:16:35;;;;;;;13.57;9.73;;;3.30;99.90;;;;;;4098863;29;20190;-69
2022/11/28 07:18:36;;;;;;;27.67;16.53;;;3.40;99.90;;;;;;4113609;28;20183;-71
2022/11/28 07:20:36;;;;;;;29.67;17.70;;;3.40;99.90;;;;;;4099046;28;20441;-69
2022/11/28 07:22:37;;;;;;;27.13;16.30;;;3.40;99.90;;;;;;4098384;28;20718;-69
2022/11/28 07:24:38;;;;;;;25.30;14.07;;;3.40;99.90;;;;;;4113441;28;20220;-69
2022/11/28 07:26:39;;;;;;;31.23;18.20;;;3.40;99.90;;;;;;4098902;28;20434;-68
2022/11/28 07:28:41;;;;;;;34.10;17.87;;;3.60;99.90;;;;;;4113772;28;20189;-68
2022/11/28 07:30:41;;;;;;;47.53;22.57;;;3.70;99.90;;;;;;4097690;28;20268;-68
2022/11/28 07:32:42;;;;;;;38.67;20.60;;;3.70;99.90;;;;;;4098017;29;20882;-68
2022/11/28 07:34:44;;;;;;;26.00;13.10;;;3.70;99.90;;;;;;4098729;29;20285;-69
2022/11/28 07:36:44;;;;;;;17.60;10.43;;;3.70;99.90;;;;;;4098901;28;20706;-68
2022/11/28 07:38:47;;;;;;;10.33;5.70;;;3.80;99.90;;;;;;4098621;28;20435;-69
2022/11/28 07:40:49;;;;;;;5.07;3.60;;;3.80;99.90;;;;;;4097440;29;20282;-69
2022/11/28 07:42:50;;;;;;;10.17;6.30;;;4.00;99.90;;;;;;4096713;28;20538;-68
2022/11/28 07:44:50;;;;;;;19.20;10.17;;;4.10;99.90;;;;;;4098478;28;20439;-68
2022/11/28 07:46:51;;;;;;;9.93;6.73;;;4.10;99.90;;;;;;4097388;29;20171;-68
2022/11/28 07:48:52;;;;;;;18.47;13.00;;;4.20;99.90;;;;;;4098513;29;20176;-68
2022/11/28 07:50:53;;;;;;;28.47;16.00;;;3.90;99.90;;;;;;4097378;29;20673;-68
2022/11/28 07:52:54;;;;;;;25.83;16.13;;;3.80;99.90;;;;;;4097994;29;20431;-68
2022/11/28 07:54:54;;;;;;;30.13;17.70;;;3.80;99.90;;;;;;4098616;28;20750;-68
2022/11/28 07:56:55;;;;;;;27.33;16.90;;;4.00;99.90;;;;;;4098527;29;20192;-68
2022/11/28 07:58:56;;;;;;;32.07;20.53;;;3.90;99.90;;;;;;4098417;29;20200;-67
2022/11/28 08:00:57;;;;;;;33.17;20.13;;;4.10;99.90;;;;;;4113192;28;20266;-68
2022/11/28 08:02:58;;;;;;;33.60;22.67;;;4.20;99.90;;;;;;4072737;28;1053386;-69
2022/11/28 08:04:59;;;;;;;41.77;27.97;;;4.40;99.90;;;;;;4105624;28;20195;-68
2022/11/28 08:06:59;;;;;;;41.30;27.20;;;4.40;99.90;;;;;;4099597;29;20461;-68
2022/11/28 08:09:00;;;;;;;36.93;23.87;;;4.40;99.90;;;;;;4099504;29;20192;-67
2022/11/28 08:11:05;;;;;;;43.77;26.53;;;4.50;99.90;;;;;;4099630;28;20188;-68
2022/11/28 08:13:05;;;;;;;45.90;28.10;;;4.50;99.90;;;;;;4113680;28;20197;-69
2022/11/28 08:15:07;;;;;;;55.77;31.77;;;4.60;99.90;;;;;;4099197;28;20953;-68
2022/11/28 08:17:08;;;;;;;46.50;28.37;;;4.50;99.90;;;;;;4098212;28;20195;-68
2022/11/28 08:19:09;;;;;;;42.80;25.50;;;4.70;99.90;;;;;;4098913;28;20436;-68
2022/11/28 08:21:15;;;;;;;34.23;22.27;;;4.70;99.90;;;;;;4097651;28;20904;-68
2022/11/28 08:23:16;;;;;;;27.37;17.37;;;4.80;99.90;;;;;;4109109;28;20963;-68
2022/11/28 08:25:16;;;;;;;23.37;14.07;;;4.70;99.90;;;;;;4114383;28;20446;-68
2022/11/28 08:27:17;;;;;;;20.97;13.20;;;4.80;99.90;;;;;;4101214;28;20238;-68
2022/11/28 08:29:18;;;;;;;26.03;15.73;;;5.00;99.90;;;;;;4099025;29;20664;-68
2022/11/28 08:31:22;;;;;;;27.00;15.63;;;5.00;99.90;;;;;;4097822;28;20188;-69
2022/11/28 08:33:24;;;;;;;19.70;12.60;;;5.00;99.90;;;;;;4098445;28;20192;-68
2022/11/28 08:35:24;;;;;;;22.17;13.30;;;4.90;99.90;;;;;;4097887;29;20848;-69
2022/11/28 08:37:27;;;;;;;19.80;12.37;;;5.00;99.90;;;;;;4098749;29;20434;-66
2022/11/28 08:39:27;;;;;;;20.33;12.60;;;5.00;99.90;;;;;;4099303;28;20590;-68
2022/11/28 08:41:28;;;;;;;17.33;10.63;;;5.00;99.90;;;;;;4099070;28;20446;-68
2022/11/28 08:43:29;;;;;;;15.80;10.23;;;5.20;99.90;;;;;;4098036;29;20234;-68
2022/11/28 08:45:30;;;;;;;16.80;10.00;;;5.30;99.90;;;;;;4098883;29;20230;-68
2022/11/28 08:47:31;;;;;;;17.87;10.33;;;5.50;99.90;;;;;;4098572;28;20591;-68
2022/11/28 08:49:32;;;;;;;12.57;7.70;;;5.60;99.90;;;;;;4113309;28;20550;-68
2022/11/28 08:51:33;;;;;;;14.13;8.27;;;5.70;99.50;;;;;;4098476;28;20649;-68
2022/11/28 08:53:34;;;;;;;5.73;3.80;;;6.00;99.70;;;;;;4097836;28;20435;-66
2022/11/28 08:55:34;;;;;;;3.07;2.33;;;6.20;98.40;;;;;;4097254;29;20756;-67
2022/11/28 08:57:35;;;;;;;3.47;2.27;;;6.30;97.20;;;;;;4098337;29;20190;-67
2022/11/28 08:59:36;;;;;;;3.80;2.30;;;6.60;96.50;;;;;;4098259;29;20179;-66
2022/11/28 09:01:38;;;;;;;4.37;2.60;;;6.80;96.00;;;;;;4113051;28;20691;-71
2022/11/28 09:03:39;;;;;;;3.30;2.10;;;6.90;94.10;;;;;;4097466;28;20234;-69
2022/11/28 09:05:41;;;;;;;4.13;2.17;;;6.80;93.60;;;;;;4098384;28;20473;-67
2022/11/28 09:07:42;;;;;;;5.90;2.80;;;7.00;94.10;;;;;;4098257;28;20423;-67
2022/11/28 09:09:42;;;;;;;4.57;2.87;;;7.10;93.70;;;;;;4098098;28;20482;-67
2022/11/28 09:11:43;;;;;;;4.23;2.40;;;7.30;93.10;;;;;;4098277;28;20219;-67
2022/11/28 09:13:45;;;;;;;4.07;2.93;;;7.40;92.60;;;;;;4097682;28;20188;-66
2022/11/28 09:15:45;;;;;;;4.13;2.30;;;7.50;91.90;;;;;;4098195;28;20589;-67
2022/11/28 09:17:46;;;;;;;3.17;2.00;;;7.60;91.30;;;;;;4112718;28;20225;-66
2022/11/28 09:19:48;;;;;;;2.43;2.13;;;7.70;90.80;;;;;;4097910;28;20699;-67
2022/11/28 09:21:49;;;;;;;5.43;2.30;;;7.70;91.00;;;;;;4097962;28;20195;-67
2022/11/28 09:23:49;;;;;;;3.30;2.00;;;7.70;91.80;;;;;;4097369;29;20207;-67
2022/11/28 09:25:50;;;;;;;5.20;2.40;;;7.70;91.60;;;;;;4097957;28;20294;-67
2022/11/28 09:27:50;;;;;;;2.63;2.07;;;7.80;91.60;;;;;;4097905;28;20218;-66
2022/11/28 09:29:51;;;;;;;4.20;1.77;;;7.90;91.20;;;;;;4097914;28;20189;-67
2022/11/28 09:31:52;;;;;;;2.53;1.30;;;8.00;90.60;;;;;;4097893;29;20302;-67
2022/11/28 09:33:53;;;;;;;3.90;2.30;;;8.20;89.90;;;;;;4097278;28;20187;-65
2022/11/28 09:35:54;;;;;;;4.63;2.37;;;8.20;90.80;;;;;;4097901;28;20258;-66
2022/11/28 09:37:56;;;;;;;4.00;1.73;;;8.40;89.90;;;;;;4097918;28;20253;-68
2022/11/28 09:39:57;;;;;;;2.33;1.47;;;8.30;88.70;;;;;;4097070;28;20671;-66
2022/11/28 09:42:21;;;;;;;1.80;1.50;;;8.20;90.20;;;;;;4097451;28;20198;-67
2022/11/28 09:44:34;;;;;;;3.13;1.20;;;8.10;91.10;;;;;;4097375;28;20183;-69
2022/11/28 09:46:37;;;;;;;1.67;1.20;;;8.20;91.50;;;;;;4112368;28;20178;-69
2022/11/28 09:48:48;;;;;;;2.50;1.33;;;8.20;91.00;;;;;;4112638;28;20202;-69
2022/11/28 09:50:54;;;;;;;3.63;1.40;;;8.30;90.90;;;;;;4098000;28;20170;-66
2022/11/28 09:53:59;;;;;;;2.80;1.10;;;8.20;91.00;;;;;;4095810;29;20289;-68
2022/11/28 09:56:12;;;;;;;2.90;1.23;;;8.10;90.90;;;;;;4096421;29;20268;-66
2022/11/28 09:58:41;;;;;;;3.37;1.13;;;7.80;92.10;;;;;;4096828;29;20205;-69
2022/11/28 10:01:11;;;;;;;2.37;1.50;;;8.00;91.80;;;;;;4112528;28;20183;-69
2022/11/28 10:04:13;;;;;;;2.37;1.30;;;8.10;91.60;;;;;;4097091;28;20942;-67
2022/11/28 10:06:23;;;;;;;1.50;1.17;;;8.20;91.20;;;;;;4090304;28;20225;-67
2022/11/28 10:08:54;;;;;;;2.97;1.37;;;8.60;91.30;;;;;;4119925;28;20179;-66
2022/11/28 10:11:09;;;;;;;2.10;1.60;;;8.60;90.60;;;;;;4099059;28;20184;-66
2022/11/28 10:14:12;;;;;;;5.90;4.40;;;8.70;90.30;;;;;;4112465;28;20233;-66
2022/11/28 10:16:20;;;;;;;3.57;1.40;;;8.80;90.70;;;;;;4095313;28;20251;-66
2022/11/28 10:18:46;;;;;;;2.03;1.63;;;8.60;90.50;;;;;;4113074;28;20178;-67
2022/11/28 10:20:54;;;;;;;3.77;2.10;;;8.50;90.50;;;;;;4112588;28;20262;-67
2022/11/28 10:23:13;;;;;;;2.33;1.57;;;8.50;91.40;;;;;;4111801;28;20257;-66
2022/11/28 10:25:21;;;;;;;2.67;1.50;;;8.50;90.60;;;;;;4097788;28;20231;-67
2022/11/28 10:27:31;;;;;;;2.90;1.60;;;8.60;90.30;;;;;;4110539;28;20186;-66
2022/11/28 10:29:44;;;;;;;3.13;2.23;;;8.60;90.90;;;;;;4112511;28;20242;-67
2022/11/28 10:31:46;;;;;;;3.87;2.53;;;8.60;91.00;;;;;;4112288;28;20167;-67
2022/11/28 10:34:14;;;;;;;3.50;2.00;;;8.60;91.20;;;;;;4111743;28;20201;-66
2022/11/28 10:36:29;;;;;;;4.57;1.97;;;8.70;90.40;;;;;;4112117;28;20718;-67
2022/11/28 10:38:33;;;;;;;3.23;1.30;;;8.80;90.00;;;;;;4112300;28;20287;-67
2022/11/28 10:40:58;;;;;;;2.20;1.73;;;8.50;90.10;;;;;;4112105;28;20179;-67
2022/11/28 10:43:32;;;;;;;2.07;1.70;;;8.40;91.20;;;;;;4113076;28;20210;-67
2022/11/28 10:45:45;;;;;;;4.30;1.63;;;8.50;91.30;;;;;;4113947;28;20202;-67
2022/11/28 10:48:18;;;;;;;2.13;1.40;;;8.50;91.10;;;;;;4115297;28;20266;-67
2022/11/28 10:50:52;;;;;;;2.30;1.20;;;8.50;90.70;;;;;;4116956;28;20167;-67
2022/11/28 10:53:26;;;;;;;3.00;1.10;;;8.40;90.80;;;;;;4114653;28;20969;-67
2022/11/28 10:55:49;;;;;;;2.03;1.20;;;8.30;90.70;;;;;;4115171;28;20304;-66
2022/11/28 10:58:04;;;;;;;1.30;1.00;;;8.40;91.30;;;;;;4115367;28;20168;-67
2022/11/28 11:00:16;;;;;;;1.40;0.90;;;8.50;90.80;;;;;;4116347;28;20712;-66
2022/11/28 11:02:31;;;;;;;2.40;1.23;;;8.60;90.50;;;;;;4116510;28;20233;-67
2022/11/28 11:04:35;;;;;;;1.20;0.90;;;8.70;90.40;;;;;;4114505;28;20186;-67
2022/11/28 11:06:36;;;;;;;3.13;1.20;;;8.80;89.80;;;;;;4115239;28;20191;-67